GMP weather

Gimpo International Airport
Seoul, Seoul Teugbyeolsi, South Korea

Public forecast

Using degrees Celsius for public forecast. Weather courtesy of forecast.io.

METAR (pilot weather report)

Retrieved 2018/09/23 19:00 UTC (32 minutes ago):

RKSS 231900Z 36002KT CAVOK 12/08 Q1018 NOSIG

TAF (pilot weather forecast)

Retrieved 2018/09/23 18:00 UTC (2 hours ago):

TAF RKSS 231700Z 2318/2424 27006KT 9999 SCT030 TN12/2321Z TX22/2406Z TN11/2421Z BECMG 2400/2401 33010KT BECMG 2408/2409 03006KT